createdAt,value
2022-11-29T00:01:50.770Z,100398.00
2022-11-29T00:04:20.230Z,100391.16
2022-11-29T00:06:49.778Z,100384.88
2022-11-29T00:09:19.355Z,100391.56
2022-11-29T00:12:03.925Z,100386.56
2022-11-29T00:14:33.524Z,100383.91
2022-11-29T00:17:04.509Z,100392.59
2022-11-29T00:19:34.559Z,100378.31
2022-11-29T00:22:04.230Z,100364.06
2022-11-29T00:24:34.768Z,100373.13
2022-11-29T00:27:07.256Z,100372.88
2022-11-29T00:29:36.779Z,100370.13
2022-11-29T00:32:06.717Z,100380.06
2022-11-29T00:34:36.199Z,100376.53
2022-11-29T00:37:05.744Z,100373.31
2022-11-29T00:39:35.309Z,100376.78
2022-11-29T00:42:07.549Z,100378.81
2022-11-29T00:44:37.060Z,100374.13
2022-11-29T00:47:06.630Z,100384.31
2022-11-29T00:49:36.269Z,100363.75
2022-11-29T00:52:06.051Z,100368.91
2022-11-29T00:54:35.525Z,100367.84
2022-11-29T00:57:07.745Z,100367.13
2022-11-29T00:59:37.428Z,100374.72
2022-11-29T01:02:07.046Z,100381.34
2022-11-29T01:04:36.598Z,100372.69
2022-11-29T01:07:06.274Z,100388.09
2022-11-29T01:09:35.847Z,100378.59
2022-11-29T01:12:08.224Z,100378.16
2022-11-29T01:14:37.779Z,100380.22
2022-11-29T01:17:07.513Z,100378.50
2022-11-29T01:19:37.095Z,100384.56
2022-11-29T01:22:06.562Z,100376.13
2022-11-29T01:24:36.206Z,100381.88
2022-11-29T01:27:08.461Z,100377.63
2022-11-29T01:29:38.087Z,100387.88
2022-11-29T01:32:07.786Z,100391.66
2022-11-29T01:34:37.383Z,100393.75
2022-11-29T01:37:06.922Z,100393.97
2022-11-29T01:39:36.434Z,100405.13
2022-11-29T01:42:08.702Z,100406.31
2022-11-29T01:45:08.103Z,100406.31
2022-11-29T01:47:42.384Z,100420.47
2022-11-29T01:50:13.114Z,100402.44
2022-11-29T01:52:43.540Z,100416.03
2022-11-29T01:55:14.943Z,100415.31
2022-11-29T01:57:47.887Z,100408.13
2022-11-29T02:00:20.508Z,100407.09
2022-11-29T02:02:55.229Z,100402.44
2022-11-29T02:05:25.327Z,100407.31
2022-11-29T02:07:59.281Z,100407.94
2022-11-29T02:10:42.456Z,100397.31
2022-11-29T02:13:24.348Z,100412.94
2022-11-29T02:16:01.213Z,100420.81
2022-11-29T02:18:44.543Z,100420.13
2022-11-29T02:21:41.311Z,100406.56
2022-11-29T02:24:45.924Z,100393.97
2022-11-29T02:27:39.278Z,100403.84
2022-11-29T02:30:22.596Z,100398.44
2022-11-29T02:33:18.459Z,100407.94
2022-11-29T02:36:14.764Z,100391.72
2022-11-29T02:39:11.267Z,100397.31
2022-11-29T02:41:59.715Z,100406.34
2022-11-29T02:44:47.949Z,100414.31
2022-11-29T02:47:29.170Z,100416.34
2022-11-29T02:50:30.080Z,100416.81
2022-11-29T02:53:09.145Z,100412.81
2022-11-29T02:55:46.028Z,100417.53
2022-11-29T02:58:23.851Z,100417.78
2022-11-29T03:01:01.927Z,100421.19
2022-11-29T03:03:41.376Z,100426.53
2022-11-29T03:06:21.343Z,100433.28
2022-11-29T03:08:58.751Z,100434.34
2022-11-29T03:11:37.141Z,100431.72
2022-11-29T03:14:17.707Z,100427.28
2022-11-29T03:16:54.478Z,100442.56
2022-11-29T03:19:39.227Z,100448.50
2022-11-29T03:22:17.945Z,100450.13
2022-11-29T03:24:56.636Z,100455.13
2022-11-29T03:27:32.418Z,100443.38
2022-11-29T03:30:05.295Z,100458.53
2022-11-29T03:32:44.243Z,100455.47
2022-11-29T03:35:20.890Z,100461.19
2022-11-29T03:38:00.716Z,100463.69
2022-11-29T03:40:36.432Z,100456.16
2022-11-29T03:43:12.007Z,100468.03
2022-11-29T03:45:48.195Z,100465.97
2022-11-29T03:48:22.019Z,100455.13
2022-11-29T03:50:56.948Z,100465.06
2022-11-29T03:53:36.229Z,100468.28
2022-11-29T03:56:24.694Z,100451.81
2022-11-29T03:59:02.778Z,100462.94
2022-11-29T04:01:53.802Z,100469.31
2022-11-29T04:04:50.313Z,100472.41
2022-11-29T04:07:37.379Z,100477.44
2022-11-29T04:10:22.620Z,100479.00
2022-11-29T04:13:10.062Z,100470.59
2022-11-29T04:16:07.617Z,100485.53
2022-11-29T04:18:53.147Z,100476.75
2022-11-29T04:21:58.082Z,100479.00
2022-11-29T04:24:55.130Z,100485.78
2022-11-29T04:27:56.565Z,100484.16
2022-11-29T04:30:27.516Z,100472.44
2022-11-29T04:33:29.625Z,100479.91
2022-11-29T04:36:28.984Z,100480.19
2022-11-29T04:39:30.530Z,100491.25
2022-11-29T04:42:28.521Z,100486.81
2022-11-29T04:45:20.634Z,100483.94
2022-11-29T04:48:02.000Z,100490.44
2022-11-29T04:50:48.072Z,100492.28
2022-11-29T04:53:47.797Z,100508.06
2022-11-29T04:56:26.350Z,100495.03
2022-11-29T04:59:06.001Z,100505.06
2022-11-29T05:01:52.330Z,100512.06
2022-11-29T05:04:26.228Z,100510.56
2022-11-29T05:07:04.401Z,100514.09
2022-11-29T05:09:58.924Z,100519.34
2022-11-29T05:12:36.529Z,100522.91
2022-11-29T05:15:30.442Z,100521.44
2022-11-29T05:18:10.426Z,100520.63
2022-11-29T05:20:48.102Z,100520.28
2022-11-29T05:23:36.339Z,100529.75
2022-11-29T05:26:12.142Z,100530.09
2022-11-29T05:28:52.212Z,100524.59
2022-11-29T05:31:28.673Z,100521.44
2022-11-29T05:34:34.724Z,100523.13
2022-11-29T05:37:15.756Z,100526.13
2022-11-29T05:39:58.863Z,100522.69
2022-11-29T05:43:06.191Z,100535.69
2022-11-29T05:45:44.162Z,100535.25
2022-11-29T05:48:22.434Z,100535.25
2022-11-29T05:51:13.953Z,100533.44
2022-11-29T05:53:52.192Z,100544.03
2022-11-29T05:56:36.000Z,100556.28
2022-11-29T05:59:10.993Z,100557.97
2022-11-29T06:01:50.223Z,100565.44
2022-11-29T06:04:28.855Z,100562.00
2022-11-29T06:07:05.437Z,100568.28
2022-11-29T06:09:40.745Z,100564.63
2022-11-29T06:12:21.027Z,100560.97
2022-11-29T06:15:10.616Z,100566.66
2022-11-29T06:17:58.607Z,100562.47
2022-11-29T06:20:45.065Z,100571.47
2022-11-29T06:23:37.073Z,100573.88
2022-11-29T06:26:18.842Z,100570.22
2022-11-29T06:29:03.406Z,100579.16
2022-11-29T06:31:39.990Z,100579.81
2022-11-29T06:34:16.178Z,100576.63
2022-11-29T06:36:51.110Z,100586.19
2022-11-29T06:39:24.665Z,100585.53
2022-11-29T06:41:54.317Z,100578.19
2022-11-29T06:44:24.616Z,100583.59
2022-11-29T06:47:05.208Z,100585.28
2022-11-29T06:49:41.531Z,100592.38
2022-11-29T06:52:23.191Z,100587.69
2022-11-29T06:55:10.520Z,100602.91
2022-11-29T06:57:53.737Z,100609.75
2022-11-29T07:00:27.121Z,100604.97
2022-11-29T07:03:11.350Z,100611.34
2022-11-29T07:05:41.488Z,100603.34
2022-11-29T07:08:18.933Z,100609.97
2022-11-29T07:10:54.151Z,100615.22
2022-11-29T07:13:25.547Z,100621.19
2022-11-29T07:16:06.119Z,100622.31
2022-11-29T07:18:46.315Z,100628.50
2022-11-29T07:21:25.336Z,100627.81
2022-11-29T07:24:03.306Z,100630.56
2022-11-29T07:26:42.875Z,100639.69
2022-11-29T07:29:36.822Z,100637.19
2022-11-29T07:32:12.514Z,100636.03
2022-11-29T07:34:55.551Z,100639.69
2022-11-29T07:37:35.405Z,100641.31
2022-11-29T07:40:14.405Z,100647.72
2022-11-29T07:42:55.968Z,100647.81
2022-11-29T07:45:31.895Z,100636.72
2022-11-29T07:48:01.802Z,100639.81
2022-11-29T07:50:32.524Z,100644.06
2022-11-29T07:53:03.260Z,100634.69
2022-11-29T07:55:34.791Z,100642.56
2022-11-29T07:58:07.039Z,100655.59
2022-11-29T08:00:36.606Z,100648.63
2022-11-29T08:03:07.284Z,100651.59
2022-11-29T08:05:36.792Z,100653.09
2022-11-29T08:08:06.700Z,100640.84
2022-11-29T08:10:36.214Z,100655.94
2022-11-29T08:13:08.475Z,100664.97
2022-11-29T08:15:38.043Z,100667.25
2022-11-29T08:18:07.844Z,100672.88
2022-11-29T08:20:39.271Z,100669.31
2022-11-29T08:23:08.881Z,100658.91
2022-11-29T08:25:38.365Z,100667.50
2022-11-29T08:28:11.104Z,100672.75
2022-11-29T08:30:40.791Z,100664.16
2022-11-29T08:33:10.422Z,100667.94
2022-11-29T08:35:39.991Z,100677.09
2022-11-29T08:38:10.660Z,100676.63
2022-11-29T08:40:40.194Z,100678.81
2022-11-29T08:43:12.347Z,100682.16
2022-11-29T08:45:41.886Z,100682.50
2022-11-29T08:48:11.698Z,100686.69
2022-11-29T08:50:41.275Z,100683.50
2022-11-29T08:53:24.202Z,100687.97
2022-11-29T08:55:53.751Z,100682.00
2022-11-29T08:58:25.831Z,100683.41
2022-11-29T09:00:55.879Z,100695.41
2022-11-29T09:03:38.358Z,100700.19
2022-11-29T09:06:12.186Z,100688.63
2022-11-29T09:08:43.735Z,100704.88
2022-11-29T09:11:15.335Z,100706.50
2022-11-29T09:13:49.490Z,100717.28
2022-11-29T09:16:21.249Z,100711.66
2022-11-29T09:18:52.366Z,100713.41
2022-11-29T09:21:22.071Z,100719.81
2022-11-29T09:23:57.662Z,100712.69
2022-11-29T09:26:29.335Z,100722.00
2022-11-29T09:29:02.400Z,100725.97
2022-11-29T09:31:33.462Z,100727.03
2022-11-29T09:34:03.133Z,100726.88
2022-11-29T09:36:33.468Z,100725.31
2022-11-29T09:39:05.455Z,100728.72
2022-11-29T09:42:03.930Z,100732.97
2022-11-29T09:44:47.483Z,100736.38
2022-11-29T09:47:34.762Z,100730.44
2022-11-29T09:50:18.888Z,100737.66
2022-11-29T09:52:55.781Z,100738.34
2022-11-29T09:55:52.221Z,100738.69
2022-11-29T09:58:26.337Z,100744.31
2022-11-29T10:01:03.500Z,100747.16
2022-11-29T10:03:37.176Z,100741.88
2022-11-29T10:06:14.460Z,100743.06
2022-11-29T10:08:51.287Z,100751.97
2022-11-29T10:11:25.622Z,100746.81
2022-11-29T10:13:59.235Z,100743.38
2022-11-29T10:16:39.795Z,100728.97
2022-11-29T10:19:17.999Z,100736.41
2022-11-29T10:21:57.309Z,100737.66
2022-11-29T10:24:31.026Z,100731.50
2022-11-29T10:27:01.124Z,100732.97
2022-11-29T10:29:30.633Z,100743.03
2022-11-29T10:32:10.170Z,100738.94
2022-11-29T10:34:40.413Z,100739.94
2022-11-29T10:37:16.260Z,100742.25
2022-11-29T10:39:50.568Z,100737.66
2022-11-29T10:42:35.401Z,100739.72
2022-11-29T10:45:56.727Z,100737.19
2022-11-29T10:48:06.600Z,100737.66
2022-11-29T10:50:38.353Z,100738.81
2022-11-29T10:53:11.167Z,100749.22
2022-11-29T10:55:46.888Z,100743.28
2022-11-29T10:58:23.369Z,100745.09
2022-11-29T11:00:58.664Z,100742.72
2022-11-29T11:03:38.663Z,100738.09
2022-11-29T11:06:14.583Z,100752.41
2022-11-29T11:08:46.523Z,100755.75
2022-11-29T11:11:17.514Z,100745.91
2022-11-29T11:13:59.889Z,100758.94
2022-11-29T11:16:32.866Z,100759.84
2022-11-29T11:19:28.384Z,100765.13
2022-11-29T11:21:58.831Z,100768.56
2022-11-29T11:24:31.572Z,100763.06
2022-11-29T11:27:02.679Z,100762.81
2022-11-29T11:29:38.466Z,100763.63
2022-11-29T11:32:18.219Z,100768.69
2022-11-29T11:34:57.485Z,100771.75
2022-11-29T11:37:29.506Z,100779.06
2022-11-29T11:40:01.188Z,100777.72
2022-11-29T11:42:42.850Z,100769.47
2022-11-29T11:45:34.032Z,100782.16
2022-11-29T11:48:06.845Z,100788.47
2022-11-29T11:50:45.482Z,100790.06
2022-11-29T11:53:24.249Z,100789.25
2022-11-29T11:56:00.570Z,100793.03
2022-11-29T11:58:32.634Z,100782.84
2022-11-29T12:01:16.539Z,100783.50
2022-11-29T12:03:57.798Z,100794.06
2022-11-29T12:06:41.103Z,100800.78
2022-11-29T12:09:19.489Z,100802.19
2022-11-29T12:11:57.000Z,100794.16
2022-11-29T12:14:35.467Z,100788.91
2022-11-29T12:17:19.807Z,100813.63
2022-11-29T12:20:02.566Z,100815.56
2022-11-29T12:22:43.912Z,100814.66
2022-11-29T12:25:22.627Z,100806.75
2022-11-29T12:27:52.302Z,100821.88
2022-11-29T12:30:23.098Z,100825.19
2022-11-29T12:33:07.079Z,100827.16
2022-11-29T12:36:11.521Z,100829.09
2022-11-29T12:39:18.834Z,100817.75
2022-11-29T12:41:57.387Z,100829.69
2022-11-29T12:44:43.561Z,100817.06
2022-11-29T12:47:39.990Z,100812.25
2022-11-29T12:50:33.681Z,100818.44
2022-11-29T12:53:16.375Z,100813.19
2022-11-29T12:55:55.055Z,100815.47
2022-11-29T12:58:33.695Z,100827.38
2022-11-29T13:01:14.289Z,100827.97
2022-11-29T13:03:54.965Z,100828.53
2022-11-29T13:06:32.102Z,100809.75
2022-11-29T13:09:45.362Z,100829.44
2022-11-29T13:12:23.817Z,100819.81
2022-11-29T13:15:02.181Z,100818.44
2022-11-29T13:17:42.046Z,100817.44
2022-11-29T13:20:32.682Z,100831.88
2022-11-29T13:23:11.142Z,100828.44
2022-11-29T13:25:44.264Z,100833.91
2022-11-29T13:28:24.105Z,100827.84
2022-11-29T13:30:55.218Z,100831.72
2022-11-29T13:33:30.632Z,100826.59
2022-11-29T13:36:10.773Z,100834.13
2022-11-29T13:38:45.015Z,100837.00
2022-11-29T13:41:20.960Z,100831.41
2022-11-29T13:44:02.365Z,100832.53
2022-11-29T13:46:46.414Z,100829.34
2022-11-29T13:49:23.571Z,100834.03
2022-11-29T13:52:08.098Z,100838.81
2022-11-29T13:54:37.730Z,100838.03
2022-11-29T13:57:09.336Z,100845.03
2022-11-29T13:59:47.495Z,100845.81
2022-11-29T14:02:31.476Z,100833.13
2022-11-29T14:05:01.610Z,100841.47
2022-11-29T14:07:33.325Z,100835.63
2022-11-29T14:10:06.048Z,100847.88
2022-11-29T14:12:43.496Z,100839.06
2022-11-29T14:15:34.583Z,100840.78
2022-11-29T14:18:08.376Z,100846.84
2022-11-29T14:20:57.894Z,100855.19
2022-11-29T14:23:41.978Z,100848.78
2022-11-29T14:26:30.822Z,100855.53
2022-11-29T14:29:01.628Z,100858.72
2022-11-29T14:31:56.609Z,100851.38
2022-11-29T14:34:52.953Z,100870.13
2022-11-29T14:37:50.287Z,100871.97
2022-11-29T14:40:31.919Z,100866.13
2022-11-29T14:43:03.628Z,100873.47
2022-11-29T14:45:36.009Z,100889.25
2022-11-29T14:48:08.572Z,100878.59
2022-11-29T14:50:40.273Z,100873.78
2022-11-29T14:53:30.043Z,100888.78
2022-11-29T14:56:29.434Z,100891.19
2022-11-29T14:59:28.795Z,100895.53
2022-11-29T15:01:59.394Z,100882.34
2022-11-29T15:04:37.172Z,100899.63
2022-11-29T15:07:08.638Z,100900.44
2022-11-29T15:09:40.014Z,100902.84
2022-11-29T15:12:13.356Z,100893.22
2022-11-29T15:14:49.982Z,100884.16
2022-11-29T15:17:28.611Z,100901.66
2022-11-29T15:20:30.487Z,100908.75
2022-11-29T15:23:03.119Z,100909.56
2022-11-29T15:25:34.675Z,100909.56
2022-11-29T15:28:06.511Z,100907.94
2022-11-29T15:30:39.084Z,100910.38
2022-11-29T15:33:11.585Z,100919.75
2022-11-29T15:35:51.020Z,100913.66
2022-11-29T15:38:21.272Z,100906.09
2022-11-29T15:40:55.313Z,100915.97
2022-11-29T15:43:27.355Z,100929.91
2022-11-29T15:46:01.292Z,100933.13
2022-11-29T15:48:31.936Z,100920.28
2022-11-29T15:51:07.851Z,100923.75
2022-11-29T15:53:44.655Z,100929.09
2022-11-29T15:56:18.189Z,100926.38
2022-11-29T15:58:50.511Z,100931.66
2022-11-29T16:01:23.863Z,100928.91
2022-11-29T16:03:56.150Z,100927.28
2022-11-29T16:06:32.267Z,100923.63
2022-11-29T16:09:03.538Z,100924.50
2022-11-29T16:11:34.814Z,100931.81
2022-11-29T16:14:16.831Z,100928.25
2022-11-29T16:16:50.137Z,100927.47
2022-11-29T16:19:28.790Z,100931.50
2022-11-29T16:22:17.862Z,100929.44
2022-11-29T16:24:56.089Z,100935.94
2022-11-29T16:27:26.409Z,100937.56
2022-11-29T16:29:57.795Z,100947.72
2022-11-29T16:32:30.573Z,100951.59
2022-11-29T16:35:09.386Z,100951.47
2022-11-29T16:37:44.477Z,100951.59
2022-11-29T16:40:24.705Z,100948.56
2022-11-29T16:43:11.073Z,100957.97
2022-11-29T16:45:42.530Z,100945.25
2022-11-29T16:48:31.997Z,100945.75
2022-11-29T16:51:20.860Z,100956.53
2022-11-29T16:53:54.337Z,100961.53
2022-11-29T16:56:26.976Z,100959.59
2022-11-29T16:59:24.709Z,100967.50
2022-11-29T17:01:48.024Z,100962.22
2022-11-29T17:04:24.377Z,100969.31
2022-11-29T17:06:54.895Z,100970.44
2022-11-29T17:09:29.989Z,100963.53
2022-11-29T17:12:00.498Z,100957.59
2022-11-29T17:14:30.328Z,100975.94
2022-11-29T17:17:03.766Z,100981.63
2022-11-29T17:19:33.904Z,100977.38
2022-11-29T17:22:03.612Z,100988.53
2022-11-29T17:24:36.026Z,100993.19
2022-11-29T17:27:05.572Z,100974.53
2022-11-29T17:29:35.226Z,100994.47
2022-11-29T17:32:04.811Z,100990.78
2022-11-29T17:34:34.737Z,100992.53
2022-11-29T17:37:04.485Z,100994.94
2022-11-29T17:39:36.651Z,100998.16
2022-11-29T17:42:06.479Z,100992.22
2022-11-29T17:44:36.548Z,101001.56
2022-11-29T17:47:06.203Z,100994.63
2022-11-29T17:49:35.964Z,101014.16
2022-11-29T17:52:05.621Z,101013.84
2022-11-29T17:54:37.684Z,101016.91
2022-11-29T17:57:07.253Z,101006.44
2022-11-29T17:59:36.878Z,101016.41
2022-11-29T18:02:06.519Z,101021.44
2022-11-29T18:04:37.503Z,101024.00
2022-11-29T18:07:07.077Z,101018.22
2022-11-29T18:09:39.342Z,101015.47
2022-11-29T18:12:09.006Z,101020.00
2022-11-29T18:14:40.957Z,101018.50
2022-11-29T18:17:11.095Z,101008.00
2022-11-29T18:19:43.881Z,101022.31
2022-11-29T18:22:13.752Z,101023.00
2022-11-29T18:24:46.190Z,101020.56
2022-11-29T18:27:17.590Z,101020.44
2022-11-29T18:29:47.272Z,101023.31
2022-11-29T18:32:16.960Z,101020.56
2022-11-29T18:34:46.750Z,101016.59
2022-11-29T18:37:32.885Z,101029.31
2022-11-29T18:40:10.226Z,101025.75
2022-11-29T18:42:39.763Z,101029.47
2022-11-29T18:45:10.330Z,101026.06
2022-11-29T18:47:40.067Z,101033.16
2022-11-29T18:50:13.885Z,101026.25
2022-11-29T18:52:43.547Z,101035.78
2022-11-29T18:55:15.729Z,101001.00
2022-11-29T18:57:45.353Z,101020.97
2022-11-29T19:00:16.399Z,101033.34
2022-11-29T19:02:46.034Z,101021.91
2022-11-29T19:05:15.875Z,101026.56
2022-11-29T19:07:48.530Z,101022.06
2022-11-29T19:10:20.842Z,101026.06
2022-11-29T19:12:50.424Z,101024.94
2022-11-29T19:15:20.086Z,101030.13
2022-11-29T19:17:49.695Z,101021.91
2022-11-29T19:20:19.405Z,101029.81
2022-11-29T19:22:48.912Z,101021.63
2022-11-29T19:25:21.354Z,101021.91
2022-11-29T19:27:51.118Z,101028.81
2022-11-29T19:30:22.371Z,101025.56
2022-11-29T19:32:52.517Z,101025.56
2022-11-29T19:35:22.460Z,101026.94
2022-11-29T19:37:52.108Z,101026.44
2022-11-29T19:40:24.679Z,101028.50
2022-11-29T19:42:54.448Z,101018.06
2022-11-29T19:45:25.134Z,101030.81
2022-11-29T19:47:54.965Z,101015.34
2022-11-29T19:50:25.865Z,101030.13
2022-11-29T19:52:55.460Z,101035.63
2022-11-29T19:55:27.649Z,101039.16
2022-11-29T19:57:58.091Z,101027.25
2022-11-29T20:00:28.437Z,101029.84
2022-11-29T20:02:58.130Z,101039.84
2022-11-29T20:05:27.880Z,101034.66
2022-11-29T20:07:57.763Z,101020.16
2022-11-29T20:10:30.299Z,101038.34
2022-11-29T20:12:59.884Z,101033.06
2022-11-29T20:15:29.718Z,101046.44
2022-11-29T20:17:59.271Z,101042.22
2022-11-29T20:20:29.749Z,101040.66
2022-11-29T20:22:59.414Z,101031.47
2022-11-29T20:25:31.888Z,101043.66
2022-11-29T20:28:01.366Z,101029.66
2022-11-29T20:30:31.039Z,101028.06
2022-11-29T20:33:00.829Z,101048.19
2022-11-29T20:35:31.330Z,101042.22
2022-11-29T20:38:14.734Z,101034.53
2022-11-29T20:41:02.641Z,101049.00
2022-11-29T20:43:41.505Z,101052.75
2022-11-29T20:46:11.637Z,101040.47
2022-11-29T20:48:41.832Z,101048.06
2022-11-29T20:51:13.891Z,101055.63
2022-11-29T20:53:46.263Z,101065.28
2022-11-29T20:56:18.542Z,101055.16
2022-11-29T20:58:48.126Z,101056.28
2022-11-29T21:01:17.699Z,101065.47
2022-11-29T21:03:47.404Z,101064.53
2022-11-29T21:06:17.039Z,101062.41
2022-11-29T21:08:46.688Z,101069.19
2022-11-29T21:11:19.640Z,101058.91
2022-11-29T21:13:49.829Z,101056.81
2022-11-29T21:16:20.122Z,101066.47
2022-11-29T21:18:51.555Z,101070.94
2022-11-29T21:21:27.750Z,101071.28
2022-11-29T21:24:06.790Z,101064.97
2022-11-29T21:26:43.960Z,101071.94
2022-11-29T21:29:19.345Z,101065.78
2022-11-29T21:31:51.153Z,101073.06
2022-11-29T21:34:20.718Z,101060.16
2022-11-29T21:36:56.213Z,101077.56
2022-11-29T21:39:29.716Z,101063.03
2022-11-29T21:42:02.081Z,101066.91
2022-11-29T21:44:31.883Z,101074.81
2022-11-29T21:47:01.513Z,101063.03
2022-11-29T21:49:31.201Z,101056.94
2022-11-29T21:52:01.171Z,101063.13
2022-11-29T21:54:31.299Z,101070.38
2022-11-29T21:57:03.963Z,101064.75
2022-11-29T21:59:33.564Z,101079.72
2022-11-29T22:02:03.629Z,101062.84
2022-11-29T22:04:33.576Z,101072.00
2022-11-29T22:07:03.303Z,101067.63
2022-11-29T22:09:32.915Z,101068.44
2022-11-29T22:12:25.877Z,101069.56
2022-11-29T22:14:55.243Z,101081.78
2022-11-29T22:17:24.927Z,101081.38
2022-11-29T22:19:54.551Z,101082.34
2022-11-29T22:22:27.176Z,101096.38
2022-11-29T22:24:58.324Z,101099.75
2022-11-29T22:27:30.855Z,101102.66
2022-11-29T22:30:00.572Z,101095.09
2022-11-29T22:32:30.419Z,101107.50
2022-11-29T22:35:00.093Z,101100.75
2022-11-29T22:37:29.974Z,101085.13
2022-11-29T22:39:59.635Z,101085.44
2022-11-29T22:42:32.585Z,101081.75
2022-11-29T22:45:04.292Z,101086.38
2022-11-29T22:47:34.270Z,101089.28
2022-11-29T22:50:04.047Z,101086.03
2022-11-29T22:52:33.753Z,101086.69
2022-11-29T22:55:05.278Z,101094.75
2022-11-29T22:57:37.802Z,101081.72
2022-11-29T23:00:09.165Z,101088.94
2022-11-29T23:02:38.828Z,101087.50
2022-11-29T23:05:09.324Z,101096.50
2022-11-29T23:07:39.009Z,101097.66
2022-11-29T23:10:11.009Z,101099.25
2022-11-29T23:12:44.905Z,101091.50
2022-11-29T23:15:14.584Z,101082.66
2022-11-29T23:17:44.413Z,101085.88
2022-11-29T23:20:14.967Z,101089.56
2022-11-29T23:22:44.964Z,101077.66
2022-11-29T23:25:15.610Z,101089.56
2022-11-29T23:27:48.145Z,101082.78
2022-11-29T23:30:17.906Z,101089.25
2022-11-29T23:32:47.620Z,101091.31
2022-11-29T23:35:17.730Z,101086.66
2022-11-29T23:37:47.498Z,101091.19
2022-11-29T23:40:17.453Z,101086.69
2022-11-29T23:42:53.732Z,101074.75
2022-11-29T23:45:24.415Z,101103.44
2022-11-29T23:47:54.722Z,101094.56
2022-11-29T23:50:24.414Z,101100.06
2022-11-29T23:52:57.456Z,101118.13
2022-11-29T23:55:27.988Z,101118.94
2022-11-29T23:58:03.709Z,101113.44
